sensor_id;sensor_type;location;lat;lon;timestamp;pressure;altitude;pressure_sealevel;temperature;humidity
61119;BME280;51448;51.660;5.824;2023-07-09T00:02:13;101641.59;;;22.42;70.71
61119;BME280;51448;51.660;5.824;2023-07-09T00:04:42;101648.22;;;22.36;70.03
61119;BME280;51448;51.660;5.824;2023-07-09T00:07:28;101638.56;;;22.34;69.65
61119;BME280;51448;51.660;5.824;2023-07-09T00:10:00;101643.03;;;22.33;70.03
61119;BME280;51448;51.660;5.824;2023-07-09T00:12:28;101641.34;;;22.32;69.86
61119;BME280;51448;51.660;5.824;2023-07-09T00:14:55;101640.34;;;22.33;69.94
61119;BME280;51448;51.660;5.824;2023-07-09T00:17:29;101638.56;;;22.34;70.20
61119;BME280;51448;51.660;5.824;2023-07-09T00:19:58;101636.75;;;22.34;70.47
61119;BME280;51448;51.660;5.824;2023-07-09T00:22:25;101636.75;;;22.34;70.20
61119;BME280;51448;51.660;5.824;2023-07-09T00:24:56;101638.66;;;22.32;70.11
61119;BME280;51448;51.660;5.824;2023-07-09T00:27:27;101642.28;;;22.31;70.24
61119;BME280;51448;51.660;5.824;2023-07-09T00:29:56;101642.19;;;22.33;71.07
61119;BME280;51448;51.660;5.824;2023-07-09T00:32:23;101640.34;;;22.33;70.90
61119;BME280;51448;51.660;5.824;2023-07-09T00:34:52;101646.69;;;22.32;71.61
61119;BME280;51448;51.660;5.824;2023-07-09T00:37:22;101653.75;;;22.33;72.61
61119;BME280;51448;51.660;5.824;2023-07-09T00:39:54;101635.88;;;22.34;72.49
61119;BME280;51448;51.660;5.824;2023-07-09T00:42:21;101642.09;;;22.34;72.75
61119;BME280;51448;51.660;5.824;2023-07-09T00:44:51;101634.91;;;22.35;72.70
61119;BME280;51448;51.660;5.824;2023-07-09T00:52:42;101635.66;;;22.37;72.85
61119;BME280;51448;51.660;5.824;2023-07-09T00:55:19;101639.31;;;22.36;73.32
61119;BME280;51448;51.660;5.824;2023-07-09T00:57:54;101640.19;;;22.36;72.94
61119;BME280;51448;51.660;5.824;2023-07-09T01:00:28;101639.41;;;22.34;72.87
61119;BME280;51448;51.660;5.824;2023-07-09T01:03:05;101634.47;;;22.28;72.78
61119;BME280;51448;51.660;5.824;2023-07-09T01:05:36;101628.50;;;22.23;72.54
61119;BME280;51448;51.660;5.824;2023-07-09T01:08:05;101621.41;;;22.22;73.08
61119;BME280;51448;51.660;5.824;2023-07-09T01:10:36;101625.81;;;22.23;73.12
61119;BME280;51448;51.660;5.824;2023-07-09T01:13:03;101624.94;;;22.22;72.84
61119;BME280;51448;51.660;5.824;2023-07-09T01:15:31;101629.56;;;22.20;72.63
61119;BME280;51448;51.660;5.824;2023-07-09T01:18:02;101631.69;;;22.15;72.38
61119;BME280;51448;51.660;5.824;2023-07-09T01:20:30;101638.19;;;22.11;72.51
61119;BME280;51448;51.660;5.824;2023-07-09T01:22:58;101635.59;;;22.09;72.75
61119;BME280;51448;51.660;5.824;2023-07-09T01:25:28;101634.84;;;22.07;73.16
61119;BME280;51448;51.660;5.824;2023-07-09T01:27:55;101631.19;;;22.08;73.25
61119;BME280;51448;51.660;5.824;2023-07-09T01:30:27;101622.22;;;22.09;73.55
61119;BME280;51448;51.660;5.824;2023-07-09T01:32:58;101622.22;;;22.09;74.09
61119;BME280;51448;51.660;5.824;2023-07-09T01:35:29;101631.09;;;22.10;74.40
61119;BME280;51448;51.660;5.824;2023-07-09T01:37:59;101625.75;;;22.10;74.11
61119;BME280;51448;51.660;5.824;2023-07-09T01:40:28;101632.16;;;22.07;73.75
61119;BME280;51448;51.660;5.824;2023-07-09T01:43:00;101628.81;;;22.04;73.91
61119;BME280;51448;51.660;5.824;2023-07-09T01:45:30;101637.16;;;21.99;75.00
61119;BME280;51448;51.660;5.824;2023-07-09T01:48:00;101636.19;;;21.86;74.37
61119;BME280;51448;51.660;5.824;2023-07-09T01:50:29;101634.09;;;21.77;73.99
61119;BME280;51448;51.660;5.824;2023-07-09T01:52:57;101648.66;;;21.73;74.73
61119;BME280;51448;51.660;5.824;2023-07-09T01:55:25;101650.94;;;21.64;74.87
61119;BME280;51448;51.660;5.824;2023-07-09T01:57:55;101644.34;;;21.56;74.77
61119;BME280;51448;51.660;5.824;2023-07-09T02:00:22;101652.75;;;21.49;75.22
61119;BME280;51448;51.660;5.824;2023-07-09T02:02:49;101645.94;;;21.44;74.90
61119;BME280;51448;51.660;5.824;2023-07-09T02:05:18;101655.09;;;21.40;75.23
61119;BME280;51448;51.660;5.824;2023-07-09T02:07:47;101648.09;;;21.37;75.13
61119;BME280;51448;51.660;5.824;2023-07-09T02:10:16;101650.78;;;21.37;75.30
61119;BME280;51448;51.660;5.824;2023-07-09T02:12:45;101649.91;;;21.37;75.49
61119;BME280;51448;51.660;5.824;2023-07-09T02:15:13;101655.38;;;21.35;75.48
61119;BME280;51448;51.660;5.824;2023-07-09T02:17:42;101657.16;;;21.35;75.36
61119;BME280;51448;51.660;5.824;2023-07-09T02:20:10;101656.38;;;21.33;75.29
61119;BME280;51448;51.660;5.824;2023-07-09T02:22:40;101653.06;;;21.29;75.43
61119;BME280;51448;51.660;5.824;2023-07-09T02:25:08;101651.53;;;21.25;75.46
61119;BME280;51448;51.660;5.824;2023-07-09T02:27:36;101656.09;;;21.23;75.41
61119;BME280;51448;51.660;5.824;2023-07-09T02:30:05;101654.44;;;21.20;75.47
61119;BME280;51448;51.660;5.824;2023-07-09T02:32:35;101658.09;;;21.19;75.62
61119;BME280;51448;51.660;5.824;2023-07-09T02:35:04;101656.56;;;21.15;75.48
61119;BME280;51448;51.660;5.824;2023-07-09T02:37:32;101654.81;;;21.14;75.69
61119;BME280;51448;51.660;5.824;2023-07-09T02:40:01;101657.69;;;21.11;75.77
61119;BME280;51448;51.660;5.824;2023-07-09T02:42:31;101656.06;;;21.08;75.60
61119;BME280;51448;51.660;5.824;2023-07-09T02:44:59;101663.50;;;21.03;75.61
61119;BME280;51448;51.660;5.824;2023-07-09T02:47:28;101655.53;;;21.02;75.81
61119;BME280;51448;51.660;5.824;2023-07-09T02:49:57;101657.44;;;21.00;75.92
61119;BME280;51448;51.660;5.824;2023-07-09T02:52:25;101654.00;;;20.98;76.18
61119;BME280;51448;51.660;5.824;2023-07-09T02:54:54;101655.91;;;20.96;76.00
61119;BME280;51448;51.660;5.824;2023-07-09T02:57:21;101653.34;;;20.94;76.11
61119;BME280;51448;51.660;5.824;2023-07-09T02:59:49;101653.50;;;20.91;76.29
61119;BME280;51448;51.660;5.824;2023-07-09T03:02:16;101650.91;;;20.89;76.21
61119;BME280;51448;51.660;5.824;2023-07-09T03:04:44;101647.47;;;20.87;76.22
61119;BME280;51448;51.660;5.824;2023-07-09T03:07:11;101652.06;;;20.85;76.39
61119;BME280;51448;51.660;5.824;2023-07-09T03:09:39;101651.41;;;20.82;76.36
61119;BME280;51448;51.660;5.824;2023-07-09T03:12:07;101656.75;;;20.82;76.54
61119;BME280;51448;51.660;5.824;2023-07-09T03:14:35;101650.69;;;20.78;76.66
61119;BME280;51448;51.660;5.824;2023-07-09T03:17:03;101648.03;;;20.78;76.55
61119;BME280;51448;51.660;5.824;2023-07-09T03:19:30;101659.84;;;20.74;76.80
61119;BME280;51448;51.660;5.824;2023-07-09T03:22:02;101657.53;;;20.68;76.54
61119;BME280;51448;51.660;5.824;2023-07-09T03:24:29;101657.88;;;20.62;77.42
61119;BME280;51448;51.660;5.824;2023-07-09T03:26:56;101656.47;;;20.55;77.41
61119;BME280;51448;51.660;5.824;2023-07-09T03:29:24;101662.16;;;20.48;77.81
61119;BME280;51448;51.660;5.824;2023-07-09T03:31:51;101659.66;;;20.45;77.81
61119;BME280;51448;51.660;5.824;2023-07-09T03:34:19;101659.94;;;20.41;77.79
61119;BME280;51448;51.660;5.824;2023-07-09T03:36:46;101664.50;;;20.39;77.90
61119;BME280;51448;51.660;5.824;2023-07-09T03:39:14;101669.84;;;20.39;78.04
61119;BME280;51448;51.660;5.824;2023-07-09T03:41:41;101654.75;;;20.38;78.09
61119;BME280;51448;51.660;5.824;2023-07-09T03:44:09;101656.50;;;20.39;78.39
61119;BME280;51448;51.660;5.824;2023-07-09T03:46:36;101657.34;;;20.39;78.13
61119;BME280;51448;51.660;5.824;2023-07-09T03:49:03;101659.06;;;20.40;78.10
61119;BME280;51448;51.660;5.824;2023-07-09T03:51:31;101666.22;;;20.40;78.31
61119;BME280;51448;51.660;5.824;2023-07-09T03:53:59;101655.44;;;20.41;78.30
61119;BME280;51448;51.660;5.824;2023-07-09T03:56:26;101659.81;;;20.42;78.38
61119;BME280;51448;51.660;5.824;2023-07-09T03:58:54;101654.41;;;20.44;78.36
61119;BME280;51448;51.660;5.824;2023-07-09T04:01:21;101659.75;;;20.44;78.58
61119;BME280;51448;51.660;5.824;2023-07-09T04:03:49;101655.25;;;20.44;78.48
61119;BME280;51448;51.660;5.824;2023-07-09T04:06:17;101652.50;;;20.46;78.69
61119;BME280;51448;51.660;5.824;2023-07-09T04:08:44;101655.09;;;20.47;78.79
61119;BME280;51448;51.660;5.824;2023-07-09T04:11:11;101658.47;;;20.51;78.67
61119;BME280;51448;51.660;5.824;2023-07-09T04:13:40;101655.59;;;20.54;79.17
61119;BME280;51448;51.660;5.824;2023-07-09T04:16:08;101663.53;;;20.56;79.53
61119;BME280;51448;51.660;5.824;2023-07-09T04:18:37;101665.25;;;20.57;79.29
61119;BME280;51448;51.660;5.824;2023-07-09T04:21:04;101664.31;;;20.58;79.81
61119;BME280;51448;51.660;5.824;2023-07-09T04:23:32;101665.13;;;20.60;80.87
61119;BME280;51448;51.660;5.824;2023-07-09T04:25:59;101657.88;;;20.62;80.54
61119;BME280;51448;51.660;5.824;2023-07-09T04:28:30;101657.69;;;20.65;81.35
61119;BME280;51448;51.660;5.824;2023-07-09T04:30:58;101658.38;;;20.68;82.34
61119;BME280;51448;51.660;5.824;2023-07-09T04:33:26;101655.63;;;20.70;82.71
61119;BME280;51448;51.660;5.824;2023-07-09T04:35:53;101657.19;;;20.74;82.87
61119;BME280;51448;51.660;5.824;2023-07-09T04:38:22;101664.06;;;20.78;82.57
61119;BME280;51448;51.660;5.824;2023-07-09T04:40:50;101654.91;;;20.82;82.23
61119;BME280;51448;51.660;5.824;2023-07-09T04:43:17;101651.13;;;20.86;81.97
61119;BME280;51448;51.660;5.824;2023-07-09T04:45:45;101653.50;;;20.91;81.73
61119;BME280;51448;51.660;5.824;2023-07-09T04:48:12;101657.66;;;20.97;81.85
61119;BME280;51448;51.660;5.824;2023-07-09T04:50:39;101664.63;;;20.99;81.83
61119;BME280;51448;51.660;5.824;2023-07-09T04:53:07;101662.44;;;21.06;81.99
61119;BME280;51448;51.660;5.824;2023-07-09T04:55:35;101672.59;;;21.15;83.29
61119;BME280;51448;51.660;5.824;2023-07-09T04:58:02;101674.63;;;21.26;84.18
61119;BME280;51448;51.660;5.824;2023-07-09T05:00:30;101670.28;;;21.39;85.14
61119;BME280;51448;51.660;5.824;2023-07-09T05:02:57;101670.41;;;21.52;85.08
61119;BME280;51448;51.660;5.824;2023-07-09T05:05:25;101668.13;;;21.60;85.33
61119;BME280;51448;51.660;5.824;2023-07-09T05:07:52;101667.56;;;21.69;85.65
61119;BME280;51448;51.660;5.824;2023-07-09T05:10:19;101672.28;;;21.80;85.21
61119;BME280;51448;51.660;5.824;2023-07-09T05:12:50;101668.31;;;21.86;84.93
61119;BME280;51448;51.660;5.824;2023-07-09T05:15:20;101679.81;;;21.88;85.97
61119;BME280;51448;51.660;5.824;2023-07-09T05:17:49;101671.22;;;21.83;85.94
61119;BME280;51448;51.660;5.824;2023-07-09T05:20:17;101670.44;;;21.81;87.17
61119;BME280;51448;51.660;5.824;2023-07-09T05:22:44;101671.13;;;21.84;87.90
61119;BME280;51448;51.660;5.824;2023-07-09T05:25:12;101676.09;;;21.90;88.43
61119;BME280;51448;51.660;5.824;2023-07-09T05:27:46;101681.84;;;21.99;88.84
61119;BME280;51448;51.660;5.824;2023-07-09T05:30:59;101669.38;;;22.12;88.35
61119;BME280;51448;51.660;5.824;2023-07-09T05:33:27;101668.78;;;22.21;88.61
61119;BME280;51448;51.660;5.824;2023-07-09T05:35:55;101668.13;;;22.32;87.65
61119;BME280;51448;51.660;5.824;2023-07-09T05:38:24;101665.50;;;22.45;87.26
61119;BME280;51448;51.660;5.824;2023-07-09T05:41:01;101664.81;;;22.56;86.82
61119;BME280;51448;51.660;5.824;2023-07-09T05:43:30;101661.31;;;22.68;87.17
61119;BME280;51448;51.660;5.824;2023-07-09T05:45:58;101665.88;;;22.80;87.09
61119;BME280;51448;51.660;5.824;2023-07-09T05:48:25;101675.00;;;22.90;86.41
61119;BME280;51448;51.660;5.824;2023-07-09T05:50:54;101663.63;;;23.01;86.34
61119;BME280;51448;51.660;5.824;2023-07-09T05:53:24;101672.84;;;23.10;86.85
61119;BME280;51448;51.660;5.824;2023-07-09T05:55:52;101661.63;;;23.18;86.11
61119;BME280;51448;51.660;5.824;2023-07-09T05:58:21;101662.03;;;23.24;86.12
61119;BME280;51448;51.660;5.824;2023-07-09T06:00:50;101671.38;;;23.32;85.92
61119;BME280;51448;51.660;5.824;2023-07-09T06:03:22;101660.03;;;23.41;85.88
61119;BME280;51448;51.660;5.824;2023-07-09T06:05:53;101667.97;;;23.55;85.55
61119;BME280;51448;51.660;5.824;2023-07-09T06:08:21;101663.44;;;23.68;85.27
61119;BME280;51448;51.660;5.824;2023-07-09T06:10:59;101667.88;;;23.82;85.27
61119;BME280;51448;51.660;5.824;2023-07-09T06:13:30;101664.88;;;24.00;84.90
61119;BME280;51448;51.660;5.824;2023-07-09T06:15:58;101667.28;;;24.16;84.71
61119;BME280;51448;51.660;5.824;2023-07-09T06:18:29;101675.09;;;24.32;84.58
61119;BME280;51448;51.660;5.824;2023-07-09T06:20:58;101679.38;;;24.47;84.41
61119;BME280;51448;51.660;5.824;2023-07-09T06:23:27;101677.41;;;24.62;84.16
61119;BME280;51448;51.660;5.824;2023-07-09T06:25:56;101679.94;;;24.76;83.84
61119;BME280;51448;51.660;5.824;2023-07-09T06:28:24;101682.34;;;24.92;83.81
61119;BME280;51448;51.660;5.824;2023-07-09T06:30:53;101682.47;;;25.02;83.91
61119;BME280;51448;51.660;5.824;2023-07-09T06:33:23;101681.31;;;25.17;83.84
61119;BME280;51448;51.660;5.824;2023-07-09T06:35:53;101678.34;;;25.33;83.79
61119;BME280;51448;51.660;5.824;2023-07-09T06:38:23;101685.22;;;25.48;83.62
61119;BME280;51448;51.660;5.824;2023-07-09T06:40:51;101686.00;;;25.62;83.52
61119;BME280;51448;51.660;5.824;2023-07-09T06:43:19;101690.25;;;25.76;83.10
61119;BME280;51448;51.660;5.824;2023-07-09T06:45:49;101688.25;;;25.91;83.08
61119;BME280;51448;51.660;5.824;2023-07-09T06:48:22;101687.75;;;26.08;82.95
61119;BME280;51448;51.660;5.824;2023-07-09T06:50:55;101687.25;;;26.25;82.43
61119;BME280;51448;51.660;5.824;2023-07-09T06:53:24;101688.44;;;26.44;81.60
61119;BME280;51448;51.660;5.824;2023-07-09T06:55:52;101684.38;;;26.61;80.94
61119;BME280;51448;51.660;5.824;2023-07-09T06:58:22;101685.41;;;26.81;80.45
61119;BME280;51448;51.660;5.824;2023-07-09T07:00:53;101691.09;;;26.99;80.32
61119;BME280;51448;51.660;5.824;2023-07-09T07:03:22;101683.41;;;27.15;79.57
61119;BME280;51448;51.660;5.824;2023-07-09T07:05:52;101685.56;;;27.33;79.31
61119;BME280;51448;51.660;5.824;2023-07-09T07:08:21;101686.22;;;27.46;79.02
61119;BME280;51448;51.660;5.824;2023-07-09T07:10:56;101684.03;;;27.61;78.42
61119;BME280;51448;51.660;5.824;2023-07-09T07:13:33;101682.97;;;27.73;77.67
61119;BME280;51448;51.660;5.824;2023-07-09T07:16:04;101678.84;;;27.79;76.74
61119;BME280;51448;51.660;5.824;2023-07-09T07:18:34;101674.88;;;27.83;76.89
61119;BME280;51448;51.660;5.824;2023-07-09T07:21:02;101678.25;;;27.96;76.58
61119;BME280;51448;51.660;5.824;2023-07-09T07:23:30;101682.28;;;28.12;76.72
61119;BME280;51448;51.660;5.824;2023-07-09T07:25:57;101671.53;;;28.31;76.44
61119;BME280;51448;51.660;5.824;2023-07-09T07:28:25;101667.91;;;28.52;75.76
61119;BME280;51448;51.660;5.824;2023-07-09T07:31:03;101665.38;;;28.69;75.38
61119;BME280;51448;51.660;5.824;2023-07-09T07:33:35;101664.50;;;28.88;74.72
61119;BME280;51448;51.660;5.824;2023-07-09T07:36:05;101667.06;;;29.00;73.46
61119;BME280;51448;51.660;5.824;2023-07-09T07:38:53;101660.53;;;29.12;73.70
61119;BME280;51448;51.660;5.824;2023-07-09T07:41:20;101661.09;;;29.25;73.32
61119;BME280;51448;51.660;5.824;2023-07-09T07:43:48;101667.91;;;29.39;73.29
61119;BME280;51448;51.660;5.824;2023-07-09T07:46:15;101665.00;;;29.60;73.09
61119;BME280;51448;51.660;5.824;2023-07-09T07:48:43;101665.81;;;29.80;72.75
61119;BME280;51448;51.660;5.824;2023-07-09T07:51:10;101662.00;;;30.01;73.07
61119;BME280;51448;51.660;5.824;2023-07-09T07:53:38;101667.63;;;30.17;69.50
61119;BME280;51448;51.660;5.824;2023-07-09T07:56:05;101667.56;;;30.27;67.50
61119;BME280;51448;51.660;5.824;2023-07-09T07:58:33;101659.72;;;30.34;67.99
61119;BME280;51448;51.660;5.824;2023-07-09T08:01:01;101654.06;;;30.45;67.51
61119;BME280;51448;51.660;5.824;2023-07-09T08:03:29;101654.38;;;30.60;67.10
61119;BME280;51448;51.660;5.824;2023-07-09T08:05:57;101657.72;;;30.72;66.41
61119;BME280;51448;51.660;5.824;2023-07-09T08:08:28;101663.44;;;30.86;66.42
61119;BME280;51448;51.660;5.824;2023-07-09T08:11:00;101669.53;;;30.98;66.47
61119;BME280;51448;51.660;5.824;2023-07-09T08:13:33;101671.13;;;31.09;65.68
61119;BME280;51448;51.660;5.824;2023-07-09T08:16:04;101677.03;;;31.22;65.02
61119;BME280;51448;51.660;5.824;2023-07-09T08:18:33;101671.50;;;31.32;63.83
61119;BME280;51448;51.660;5.824;2023-07-09T08:21:01;101667.97;;;31.40;63.91
61119;BME280;51448;51.660;5.824;2023-07-09T08:23:28;101661.91;;;31.46;63.29
61119;BME280;51448;51.660;5.824;2023-07-09T08:25:56;101659.09;;;31.56;62.54
61119;BME280;51448;51.660;5.824;2023-07-09T08:28:25;101669.03;;;31.65;61.47
61119;BME280;51448;51.660;5.824;2023-07-09T08:30:54;101664.47;;;31.74;60.06
61119;BME280;51448;51.660;5.824;2023-07-09T08:33:23;101658.03;;;31.83;61.36
61119;BME280;51448;51.660;5.824;2023-07-09T08:35:51;101656.56;;;31.97;62.42
61119;BME280;51448;51.660;5.824;2023-07-09T08:38:20;101660.22;;;32.14;62.62
61119;BME280;51448;51.660;5.824;2023-07-09T08:49:09;101648.66;;;32.62;60.17
61119;BME280;51448;51.660;5.824;2023-07-09T08:51:45;101643.72;;;32.74;59.82
61119;BME280;51448;51.660;5.824;2023-07-09T08:54:18;101645.78;;;32.88;59.47
61119;BME280;51448;51.660;5.824;2023-07-09T08:56:56;101653.59;;;33.00;58.62
61119;BME280;51448;51.660;5.824;2023-07-09T08:59:32;101645.09;;;33.03;58.39
61119;BME280;51448;51.660;5.824;2023-07-09T09:02:26;101642.22;;;33.13;58.04
61119;BME280;51448;51.660;5.824;2023-07-09T09:05:00;101641.16;;;33.22;56.54
61119;BME280;51448;51.660;5.824;2023-07-09T09:07:43;101649.16;;;33.32;55.59
61119;BME280;51448;51.660;5.824;2023-07-09T09:10:17;101651.03;;;33.39;54.75
61119;BME280;51448;51.660;5.824;2023-07-09T09:12:53;101639.09;;;33.40;54.48
61119;BME280;51448;51.660;5.824;2023-07-09T09:15:26;101640.59;;;33.51;53.38
61119;BME280;51448;51.660;5.824;2023-07-09T09:17:55;101632.38;;;33.59;53.18
61119;BME280;51448;51.660;5.824;2023-07-09T09:20:36;101635.47;;;33.64;51.70
61119;BME280;51448;51.660;5.824;2023-07-09T09:25:41;101637.78;;;33.84;52.26
61119;BME280;51448;51.660;5.824;2023-07-09T09:28:37;101637.03;;;33.98;53.11
61119;BME280;51448;51.660;5.824;2023-07-09T09:31:05;101636.97;;;34.06;52.33
61119;BME280;51448;51.660;5.824;2023-07-09T09:33:41;101625.34;;;34.13;52.77
61119;BME280;51448;51.660;5.824;2023-07-09T09:36:44;101634.56;;;34.20;52.96
61119;BME280;51448;51.660;5.824;2023-07-09T09:39:04;101639.81;;;34.30;52.12
61119;BME280;51448;51.660;5.824;2023-07-09T09:41:31;101649.47;;;34.40;52.31
61119;BME280;51448;51.660;5.824;2023-07-09T09:44:03;101649.56;;;34.47;51.28
61119;BME280;51448;51.660;5.824;2023-07-09T09:46:31;101650.91;;;34.51;51.53
61119;BME280;51448;51.660;5.824;2023-07-09T09:49:01;101653.47;;;34.53;51.60
61119;BME280;51448;51.660;5.824;2023-07-09T09:51:30;101642.84;;;34.58;50.84
61119;BME280;51448;51.660;5.824;2023-07-09T09:53:58;101640.41;;;34.63;50.81
61119;BME280;51448;51.660;5.824;2023-07-09T09:56:28;101650.47;;;34.71;51.32
61119;BME280;51448;51.660;5.824;2023-07-09T09:58:57;101634.38;;;34.76;50.93
61119;BME280;51448;51.660;5.824;2023-07-09T10:01:28;101643.34;;;34.84;48.37
61119;BME280;51448;51.660;5.824;2023-07-09T10:04:03;101627.63;;;34.86;47.34
61119;BME280;51448;51.660;5.824;2023-07-09T10:09:38;101609.81;;;34.91;47.29
61119;BME280;51448;51.660;5.824;2023-07-09T10:28:07;101611.91;;;35.41;45.88
61119;BME280;51448;51.660;5.824;2023-07-09T10:31:10;101607.75;;;35.45;47.04
61119;BME280;51448;51.660;5.824;2023-07-09T10:33:52;101605.75;;;35.54;46.26
61119;BME280;51448;51.660;5.824;2023-07-09T10:36:30;101599.91;;;35.57;44.89
61119;BME280;51448;51.660;5.824;2023-07-09T10:41:40;101597.63;;;35.46;44.10
61119;BME280;51448;51.660;5.824;2023-07-09T10:46:50;101611.22;;;35.54;42.26
61119;BME280;51448;51.660;5.824;2023-07-09T10:49:25;101620.97;;;35.57;41.78
61119;BME280;51448;51.660;5.824;2023-07-09T10:55:03;101608.38;;;35.62;41.10
61119;BME280;51448;51.660;5.824;2023-07-09T10:57:44;101615.56;;;35.63;40.19
61119;BME280;51448;51.660;5.824;2023-07-09T11:00:19;101620.00;;;35.64;41.07
61119;BME280;51448;51.660;5.824;2023-07-09T11:02:50;101619.16;;;35.79;42.69
61119;BME280;51448;51.660;5.824;2023-07-09T11:05:28;101602.25;;;35.90;42.22
61119;BME280;51448;51.660;5.824;2023-07-09T11:15:37;101599.25;;;36.21;40.37
61119;BME280;51448;51.660;5.824;2023-07-09T11:18:10;101587.47;;;36.21;40.57
61119;BME280;51448;51.660;5.824;2023-07-09T11:20:44;101578.00;;;36.23;41.54
61119;BME280;51448;51.660;5.824;2023-07-09T11:23:20;101581.88;;;36.29;39.28
61119;BME280;51448;51.660;5.824;2023-07-09T11:28:46;101588.97;;;36.23;40.41
61119;BME280;51448;51.660;5.824;2023-07-09T11:31:25;101582.06;;;36.28;39.56
61119;BME280;51448;51.660;5.824;2023-07-09T11:37:01;101599.78;;;36.32;40.18
61119;BME280;51448;51.660;5.824;2023-07-09T11:39:30;101600.91;;;36.37;39.26
61119;BME280;51448;51.660;5.824;2023-07-09T11:45:16;101607.47;;;36.21;39.44
61119;BME280;51448;51.660;5.824;2023-07-09T11:47:50;101607.09;;;36.10;38.71
61119;BME280;51448;51.660;5.824;2023-07-09T11:50:24;101605.91;;;35.97;38.56
61119;BME280;51448;51.660;5.824;2023-07-09T11:55:40;101610.09;;;35.78;38.61
61119;BME280;51448;51.660;5.824;2023-07-09T11:58:12;101614.06;;;35.76;38.22
61119;BME280;51448;51.660;5.824;2023-07-09T12:03:38;101605.97;;;35.68;38.84
61119;BME280;51448;51.660;5.824;2023-07-09T12:08:58;101605.97;;;35.68;39.13
61119;BME280;51448;51.660;5.824;2023-07-09T12:11:31;101611.06;;;35.71;38.73
61119;BME280;51448;51.660;5.824;2023-07-09T12:14:01;101617.56;;;35.70;38.38
61119;BME280;51448;51.660;5.824;2023-07-09T12:16:33;101616.06;;;35.67;38.39
61119;BME280;51448;51.660;5.824;2023-07-09T12:19:02;101607.22;;;35.65;38.42
61119;BME280;51448;51.660;5.824;2023-07-09T12:21:31;101609.72;;;35.66;39.02
61119;BME280;51448;51.660;5.824;2023-07-09T12:24:03;101611.44;;;35.68;39.37
61119;BME280;51448;51.660;5.824;2023-07-09T12:26:42;101601.16;;;35.70;39.40
61119;BME280;51448;51.660;5.824;2023-07-09T12:29:10;101599.00;;;35.65;39.94
61119;BME280;51448;51.660;5.824;2023-07-09T12:31:39;101605.00;;;35.60;39.77
61119;BME280;51448;51.660;5.824;2023-07-09T12:34:10;101594.81;;;35.54;40.64
61119;BME280;51448;51.660;5.824;2023-07-09T12:36:45;101586.53;;;35.47;40.61
61119;BME280;51448;51.660;5.824;2023-07-09T12:39:18;101577.84;;;35.44;40.66
61119;BME280;51448;51.660;5.824;2023-07-09T12:41:59;101567.47;;;35.39;40.96
61119;BME280;51448;51.660;5.824;2023-07-09T12:44:29;101557.59;;;35.38;41.21
61119;BME280;51448;51.660;5.824;2023-07-09T12:47:02;101558.03;;;35.42;41.05
61119;BME280;51448;51.660;5.824;2023-07-09T12:49:31;101553.88;;;35.46;41.56
61119;BME280;51448;51.660;5.824;2023-07-09T12:52:12;101555.13;;;35.43;41.05
61119;BME280;51448;51.660;5.824;2023-07-09T12:54:59;101560.50;;;35.37;41.26
61119;BME280;51448;51.660;5.824;2023-07-09T12:57:29;101563.16;;;35.30;41.05
61119;BME280;51448;51.660;5.824;2023-07-09T12:59:57;101561.19;;;35.24;40.88
61119;BME280;51448;51.660;5.824;2023-07-09T13:02:26;101569.25;;;35.17;40.97
61119;BME280;51448;51.660;5.824;2023-07-09T13:05:02;101555.81;;;35.16;41.47
61119;BME280;51448;51.660;5.824;2023-07-09T13:07:34;101556.31;;;35.11;41.69
61119;BME280;51448;51.660;5.824;2023-07-09T13:10:07;101551.59;;;35.05;41.53
61119;BME280;51448;51.660;5.824;2023-07-09T13:12:41;101544.81;;;35.01;42.01
61119;BME280;51448;51.660;5.824;2023-07-09T13:15:18;101555.66;;;34.94;41.48
61119;BME280;51448;51.660;5.824;2023-07-09T13:17:49;101560.03;;;34.80;41.85
61119;BME280;51448;51.660;5.824;2023-07-09T13:20:16;101561.22;;;34.63;42.58
61119;BME280;51448;51.660;5.824;2023-07-09T13:22:44;101560.13;;;34.49;42.96
61119;BME280;51448;51.660;5.824;2023-07-09T13:25:12;101555.84;;;34.32;43.38
61119;BME280;51448;51.660;5.824;2023-07-09T13:27:39;101556.28;;;34.12;43.14
61119;BME280;51448;51.660;5.824;2023-07-09T13:30:07;101561.66;;;33.97;43.95
61119;BME280;51448;51.660;5.824;2023-07-09T13:32:35;101564.50;;;33.81;44.24
61119;BME280;51448;51.660;5.824;2023-07-09T13:35:02;101570.88;;;33.65;44.50
61119;BME280;51448;51.660;5.824;2023-07-09T13:37:31;101561.72;;;33.50;44.93
61119;BME280;51448;51.660;5.824;2023-07-09T13:39:58;101565.00;;;33.28;45.83
61119;BME280;51448;51.660;5.824;2023-07-09T13:42:27;101565.03;;;33.04;47.95
61119;BME280;51448;51.660;5.824;2023-07-09T13:46:41;101579.56;;;32.55;51.32
61119;BME280;51448;51.660;5.824;2023-07-09T13:49:20;101595.66;;;32.32;52.45
61119;BME280;51448;51.660;5.824;2023-07-09T13:51:51;101595.59;;;32.07;53.34
61119;BME280;51448;51.660;5.824;2023-07-09T13:54:24;101590.72;;;31.85;54.10
61119;BME280;51448;51.660;5.824;2023-07-09T13:56:54;101591.50;;;31.61;54.97
61119;BME280;51448;51.660;5.824;2023-07-09T13:59:23;101596.59;;;31.38;56.12
61119;BME280;51448;51.660;5.824;2023-07-09T14:01:58;101604.59;;;31.13;56.88
61119;BME280;51448;51.660;5.824;2023-07-09T14:04:27;101609.00;;;30.88;57.14
61119;BME280;51448;51.660;5.824;2023-07-09T14:06:55;101603.19;;;30.65;57.10
61119;BME280;51448;51.660;5.824;2023-07-09T14:09:23;101607.91;;;30.45;57.72
61119;BME280;51448;51.660;5.824;2023-07-09T14:11:52;101604.16;;;30.28;58.07
61119;BME280;51448;51.660;5.824;2023-07-09T14:14:23;101601.19;;;30.03;57.18
61119;BME280;51448;51.660;5.824;2023-07-09T14:16:57;101583.88;;;29.86;58.52
61119;BME280;51448;51.660;5.824;2023-07-09T14:19:26;101588.09;;;29.71;59.08